createdAt,value
2018-02-16T00:00:23.626Z,71.40
2018-02-16T00:02:50.872Z,71.30
2018-02-16T00:05:17.564Z,71.30
2018-02-16T00:07:44.947Z,70.90
2018-02-16T00:10:11.615Z,70.90
2018-02-16T00:12:38.243Z,70.20
2018-02-16T00:15:04.862Z,70.70
2018-02-16T00:17:31.466Z,70.60
2018-02-16T00:19:58.123Z,71.20
2018-02-16T00:22:24.758Z,71.70
2018-02-16T00:24:51.366Z,71.10
2018-02-16T00:27:18.013Z,70.80
2018-02-16T00:29:45.352Z,71.30
2018-02-16T00:32:11.957Z,71.30
2018-02-16T00:34:38.577Z,71.30
2018-02-16T00:37:05.297Z,71.40
2018-02-16T00:39:31.960Z,71.30
2018-02-16T00:41:58.605Z,71.50
2018-02-16T00:44:25.204Z,71.20
2018-02-16T00:46:52.538Z,71.50
2018-02-16T00:49:19.182Z,71.40
2018-02-16T00:51:45.789Z,70.90
2018-02-16T00:54:12.489Z,70.60
2018-02-16T00:56:39.061Z,69.90
2018-02-16T00:59:05.712Z,69.70
2018-02-16T01:01:32.354Z,69.90
2018-02-16T01:03:58.955Z,70.00
2018-02-16T01:06:25.583Z,69.90
2018-02-16T01:08:52.207Z,70.30
2018-02-16T01:11:19.586Z,70.60
2018-02-16T01:13:46.158Z,70.60
2018-02-16T01:16:12.755Z,70.70
2018-02-16T01:18:39.423Z,70.90
2018-02-16T01:21:06.047Z,70.80
2018-02-16T01:23:32.662Z,71.10
2018-02-16T01:25:59.629Z,71.20
2018-02-16T01:28:26.313Z,70.70
2018-02-16T01:30:53.638Z,70.20
2018-02-16T01:33:21.133Z,70.50
2018-02-16T01:35:48.587Z,70.10
2018-02-16T01:38:15.199Z,70.00
2018-02-16T01:40:42.131Z,69.10
2018-02-16T01:43:08.731Z,69.40
2018-02-16T01:45:35.338Z,70.30
2018-02-16T01:48:02.697Z,69.80
2018-02-16T01:50:30.042Z,69.20
2018-02-16T01:52:57.382Z,68.50
2018-02-16T01:55:23.989Z,68.40
2018-02-16T01:57:50.598Z,68.80
2018-02-16T02:00:17.242Z,69.00
2018-02-16T02:02:44.007Z,68.90
2018-02-16T02:05:10.630Z,68.90
2018-02-16T02:07:37.248Z,68.90
2018-02-16T02:10:03.874Z,68.40
2018-02-16T02:12:31.221Z,68.70
2018-02-16T02:14:57.821Z,68.60
2018-02-16T02:17:24.416Z,68.30
2018-02-16T02:19:51.049Z,68.70
2018-02-16T02:22:17.666Z,69.20
2018-02-16T02:24:44.263Z,68.60
2018-02-16T02:27:10.873Z,68.70
2018-02-16T02:29:37.490Z,68.50
2018-02-16T02:32:04.831Z,69.00
2018-02-16T02:34:31.433Z,68.90
2018-02-16T02:36:58.026Z,69.10
2018-02-16T02:39:25.373Z,69.00
2018-02-16T02:41:53.320Z,68.50
2018-02-16T02:44:19.909Z,68.40
2018-02-16T02:46:46.517Z,68.00
2018-02-16T02:49:13.844Z,68.20
2018-02-16T02:51:41.235Z,68.70
2018-02-16T02:54:07.861Z,68.60
2018-02-16T02:56:35.339Z,68.40
2018-02-16T02:59:02.023Z,68.30
2018-02-16T03:01:28.616Z,68.70
2018-02-16T03:03:55.262Z,68.30
2018-02-16T03:06:22.114Z,68.40
2018-02-16T03:08:48.722Z,69.00
2018-02-16T03:11:15.326Z,69.00
2018-02-16T03:13:41.930Z,68.70
2018-02-16T03:16:08.524Z,69.00
2018-02-16T03:18:35.123Z,69.00
2018-02-16T03:21:01.708Z,69.00
2018-02-16T03:23:28.334Z,69.00
2018-02-16T03:25:54.942Z,69.00
2018-02-16T03:28:21.541Z,68.60
2018-02-16T03:30:48.155Z,68.60
2018-02-16T03:33:14.789Z,69.30
2018-02-16T03:35:41.375Z,69.20
2018-02-16T03:38:07.958Z,69.60
2018-02-16T03:40:34.943Z,69.50
2018-02-16T03:43:01.647Z,69.40
2018-02-16T03:45:28.231Z,68.90
2018-02-16T03:47:54.890Z,69.00
2018-02-16T03:50:21.498Z,69.00
2018-02-16T03:52:48.086Z,68.70
2018-02-16T03:55:15.430Z,68.30
2018-02-16T03:57:42.758Z,69.40
2018-02-16T04:00:09.361Z,68.60
2018-02-16T04:02:35.959Z,68.30
2018-02-16T04:05:03.334Z,68.00
2018-02-16T04:07:29.958Z,68.00
2018-02-16T04:09:56.542Z,67.40
2018-02-16T04:12:23.144Z,67.80
2018-02-16T04:14:50.454Z,67.90
2018-02-16T04:17:17.341Z,67.90
2018-02-16T04:19:43.994Z,68.10
2018-02-16T04:22:10.618Z,67.90
2018-02-16T04:24:37.242Z,67.90
2018-02-16T04:27:04.582Z,67.30
2018-02-16T04:29:31.947Z,67.60
2018-02-16T04:31:58.576Z,67.60
2018-02-16T04:34:26.079Z,67.60
2018-02-16T04:36:52.661Z,67.50
2018-02-16T04:39:20.290Z,66.80
2018-02-16T04:41:46.903Z,66.80
2018-02-16T04:44:13.488Z,67.00
2018-02-16T04:46:40.846Z,66.80
2018-02-16T04:49:07.423Z,66.70
2018-02-16T04:51:34.009Z,66.80
2018-02-16T04:54:00.631Z,67.00
2018-02-16T04:56:27.282Z,67.40
2018-02-16T04:58:55.334Z,68.20
2018-02-16T05:01:21.957Z,67.40
2018-02-16T05:03:48.548Z,67.40
2018-02-16T05:06:15.905Z,67.60
2018-02-16T05:08:43.242Z,68.10
2018-02-16T05:11:09.862Z,67.70
2018-02-16T05:13:36.485Z,67.40
2018-02-16T05:16:03.113Z,67.20
2018-02-16T05:18:29.734Z,67.50
2018-02-16T05:20:56.330Z,67.00
2018-02-16T05:23:23.828Z,67.50
2018-02-16T05:25:50.394Z,67.40
2018-02-16T05:28:17.002Z,67.40
2018-02-16T05:30:43.661Z,67.30
2018-02-16T05:33:10.240Z,67.30
2018-02-16T05:35:36.839Z,66.80
2018-02-16T05:38:03.511Z,66.30
2018-02-16T05:40:30.117Z,65.90
2018-02-16T05:42:56.768Z,66.10
2018-02-16T05:45:23.375Z,66.30
2018-02-16T05:47:49.999Z,66.10
2018-02-16T05:50:16.602Z,66.20
2018-02-16T05:52:43.191Z,66.20
2018-02-16T05:55:09.806Z,66.00
2018-02-16T05:57:36.439Z,66.00
2018-02-16T06:00:03.826Z,66.10
2018-02-16T06:02:30.524Z,66.00
2018-02-16T06:04:57.131Z,66.30
2018-02-16T06:07:23.837Z,66.50
2018-02-16T06:09:50.410Z,67.00
2018-02-16T06:12:17.012Z,66.70
2018-02-16T06:14:43.616Z,66.60
2018-02-16T06:17:10.209Z,66.70
2018-02-16T06:19:36.831Z,67.00
2018-02-16T06:22:03.541Z,67.30
2018-02-16T06:24:30.137Z,67.20
2018-02-16T06:26:56.755Z,67.10
2018-02-16T06:29:23.344Z,67.10
2018-02-16T06:31:49.977Z,67.40
2018-02-16T06:34:17.297Z,67.40
2018-02-16T06:36:43.939Z,67.40
2018-02-16T06:39:10.571Z,67.50
2018-02-16T06:41:37.157Z,67.40
2018-02-16T06:44:03.745Z,67.50
2018-02-16T06:46:30.484Z,67.50
2018-02-16T06:48:57.075Z,67.60
2018-02-16T06:51:23.789Z,67.80
2018-02-16T06:53:51.148Z,67.80
2018-02-16T06:56:18.141Z,67.80
2018-02-16T06:58:44.732Z,67.60
2018-02-16T07:01:11.362Z,67.90
2018-02-16T07:03:38.710Z,67.00
2018-02-16T07:06:05.311Z,67.00
2018-02-16T07:08:31.947Z,67.50
2018-02-16T07:10:58.535Z,67.90
2018-02-16T07:13:25.170Z,67.40
2018-02-16T07:15:51.762Z,66.50
2018-02-16T07:18:18.440Z,67.10
2018-02-16T07:20:45.791Z,67.30
2018-02-16T07:23:13.220Z,67.60
2018-02-16T07:25:39.795Z,67.50
2018-02-16T07:28:06.423Z,67.10
2018-02-16T07:30:33.833Z,66.70
2018-02-16T07:33:00.410Z,67.50
2018-02-16T07:35:27.762Z,66.40
2018-02-16T07:37:55.099Z,66.10
2018-02-16T07:40:21.742Z,66.10
2018-02-16T07:42:48.450Z,66.20
2018-02-16T07:45:15.070Z,66.50
2018-02-16T07:47:41.695Z,66.50
2018-02-16T07:50:08.556Z,66.60
2018-02-16T07:52:35.192Z,66.40
2018-02-16T07:55:01.857Z,66.50
2018-02-16T07:57:28.492Z,66.40
2018-02-16T07:59:55.098Z,66.30
2018-02-16T08:02:21.715Z,66.20
2018-02-16T08:04:48.345Z,65.70
2018-02-16T08:07:14.955Z,65.80
2018-02-16T08:09:41.765Z,65.90
2018-02-16T08:12:08.386Z,66.00
2018-02-16T08:14:34.980Z,65.80
2018-02-16T08:17:02.482Z,65.00
2018-02-16T08:19:29.087Z,65.00
2018-02-16T08:21:55.708Z,65.10
2018-02-16T08:24:22.384Z,65.00
2018-02-16T08:26:49.988Z,64.80
2018-02-16T08:29:16.621Z,64.20
2018-02-16T08:31:43.202Z,63.60
2018-02-16T08:34:10.542Z,61.30
2018-02-16T08:36:37.886Z,61.40
2018-02-16T08:39:04.541Z,61.40
2018-02-16T08:41:31.891Z,59.10
2018-02-16T08:43:59.237Z,56.70
2018-02-16T08:46:26.618Z,56.50
2018-02-16T08:48:53.990Z,56.20
2018-02-16T08:51:20.585Z,56.20
2018-02-16T08:53:47.191Z,57.10
2018-02-16T08:56:13.786Z,56.40
2018-02-16T08:58:40.398Z,57.40
2018-02-16T09:01:06.974Z,57.80
2018-02-16T09:03:33.590Z,56.70
2018-02-16T09:06:00.979Z,54.80
2018-02-16T09:08:28.342Z,54.60
2018-02-16T09:10:54.963Z,54.00
2018-02-16T09:13:21.563Z,50.30
2018-02-16T09:15:48.914Z,46.20
2018-02-16T09:18:15.551Z,46.20
2018-02-16T09:20:42.156Z,47.50
2018-02-16T09:23:08.791Z,46.40
2018-02-16T09:25:35.390Z,47.00
2018-02-16T09:28:02.121Z,46.70
2018-02-16T09:30:29.717Z,46.70
2018-02-16T09:32:56.355Z,45.70
2018-02-16T09:35:22.964Z,45.80
2018-02-16T09:37:49.609Z,45.10
2018-02-16T09:40:18.064Z,46.50
2018-02-16T09:42:44.646Z,48.10
2018-02-16T09:45:12.054Z,48.10
2018-02-16T09:47:39.382Z,49.50
2018-02-16T09:50:06.005Z,49.30
2018-02-16T09:52:32.677Z,51.10
2018-02-16T09:55:00.390Z,53.40
2018-02-16T09:57:27.011Z,53.30
2018-02-16T09:59:53.620Z,54.70
2018-02-16T10:02:20.266Z,55.30
2018-02-16T10:04:46.899Z,54.90
2018-02-16T10:07:14.322Z,54.70
2018-02-16T10:09:41.027Z,54.60
2018-02-16T10:12:07.654Z,54.80
2018-02-16T10:14:34.281Z,54.50
2018-02-16T10:17:01.718Z,54.90
2018-02-16T10:19:28.370Z,54.70
2018-02-16T10:21:54.986Z,55.00
2018-02-16T10:24:21.632Z,55.80
2018-02-16T10:26:48.274Z,56.20
2018-02-16T10:29:15.709Z,55.00
2018-02-16T10:31:42.331Z,55.00
2018-02-16T10:34:08.934Z,55.80
2018-02-16T10:36:35.579Z,55.80
2018-02-16T10:39:02.234Z,56.00
2018-02-16T10:41:29.084Z,56.10
2018-02-16T10:43:55.675Z,56.60
2018-02-16T10:46:22.510Z,55.20
2018-02-16T10:48:49.227Z,55.00
2018-02-16T10:51:15.791Z,55.00
2018-02-16T10:53:42.393Z,55.10
2018-02-16T10:56:09.075Z,53.00
2018-02-16T10:58:35.979Z,53.10
2018-02-16T11:01:08.579Z,52.50
2018-02-16T11:03:38.182Z,51.50
2018-02-16T11:06:11.559Z,52.50
2018-02-16T11:08:44.237Z,52.40
2018-02-16T11:11:10.884Z,51.50
2018-02-16T11:13:38.254Z,51.20
2018-02-16T11:16:05.586Z,51.50
2018-02-16T11:18:32.218Z,51.50
2018-02-16T11:20:58.845Z,51.50
2018-02-16T11:23:25.462Z,51.10
2018-02-16T11:25:52.057Z,50.50
2018-02-16T11:28:18.638Z,50.90
2018-02-16T11:30:45.267Z,50.20
2018-02-16T11:33:11.978Z,50.10
2018-02-16T11:35:38.590Z,50.40
2018-02-16T11:38:05.955Z,47.10
2018-02-16T11:40:32.602Z,47.00
2018-02-16T11:42:59.196Z,47.90
2018-02-16T11:45:25.852Z,44.90
2018-02-16T11:47:52.489Z,43.00
2018-02-16T11:50:19.130Z,42.20
2018-02-16T11:52:46.488Z,41.40
2018-02-16T11:55:13.170Z,41.30
2018-02-16T11:57:39.822Z,40.90
2018-02-16T12:00:06.470Z,41.00
2018-02-16T12:02:33.445Z,40.10
2018-02-16T12:05:00.825Z,39.50
2018-02-16T12:07:27.451Z,39.30
2018-02-16T12:09:54.822Z,40.00
2018-02-16T12:12:21.451Z,40.00
2018-02-16T12:14:48.086Z,39.30
2018-02-16T12:17:14.743Z,40.60
2018-02-16T12:19:41.360Z,40.20
2018-02-16T12:22:08.012Z,40.10
2018-02-16T12:24:34.666Z,39.50
2018-02-16T12:27:01.336Z,39.30
2018-02-16T12:29:27.986Z,41.90
2018-02-16T12:31:54.615Z,40.80
2018-02-16T12:34:21.203Z,40.80
2018-02-16T12:36:47.834Z,42.40
2018-02-16T12:39:14.468Z,44.50
2018-02-16T12:41:41.132Z,45.20
2018-02-16T12:44:07.757Z,45.00
2018-02-16T12:46:34.363Z,45.10
2018-02-16T12:49:01.068Z,43.90
2018-02-16T12:51:27.713Z,44.90
2018-02-16T12:53:54.355Z,44.80
2018-02-16T12:56:21.043Z,44.80
2018-02-16T12:58:47.710Z,43.40
2018-02-16T13:01:14.359Z,44.10
2018-02-16T13:03:41.017Z,44.30
2018-02-16T13:06:07.701Z,44.60
2018-02-16T13:08:34.379Z,42.40
2018-02-16T13:11:02.327Z,43.10
2018-02-16T13:13:29.877Z,42.90
2018-02-16T13:15:56.581Z,42.80
2018-02-16T13:18:23.207Z,43.10
2018-02-16T13:20:49.847Z,41.90
2018-02-16T13:23:16.561Z,40.80
2018-02-16T13:25:43.206Z,42.50
2018-02-16T13:28:09.941Z,41.80
2018-02-16T13:30:37.299Z,43.20
2018-02-16T13:33:03.994Z,43.10
2018-02-16T13:35:30.626Z,42.70
2018-02-16T13:37:57.252Z,43.00
2018-02-16T13:40:23.890Z,42.40
2018-02-16T13:42:50.574Z,42.70
2018-02-16T13:45:17.224Z,43.20
2018-02-16T13:47:43.839Z,42.50
2018-02-16T13:50:11.229Z,42.70
2018-02-16T13:52:38.591Z,41.70
2018-02-16T13:55:06.046Z,40.20
2018-02-16T13:57:32.676Z,40.10
2018-02-16T14:00:00.974Z,38.70
2018-02-16T14:02:28.355Z,38.70
2018-02-16T14:04:55.024Z,38.50
2018-02-16T14:07:21.659Z,39.30
2018-02-16T14:09:48.278Z,39.60
2018-02-16T14:12:15.783Z,40.00
2018-02-16T14:14:43.208Z,40.10
2018-02-16T14:17:09.880Z,40.10
2018-02-16T14:19:37.230Z,41.40
2018-02-16T14:22:03.904Z,40.60
2018-02-16T14:24:31.270Z,39.20
2018-02-16T14:26:57.941Z,39.30
2018-02-16T14:29:24.542Z,40.00
2018-02-16T14:31:51.152Z,39.60
2018-02-16T14:34:18.535Z,38.30
2018-02-16T14:36:45.171Z,38.30
2018-02-16T14:39:11.800Z,38.60
2018-02-16T14:41:38.397Z,39.70
2018-02-16T14:44:05.196Z,38.10
2018-02-16T14:46:31.848Z,38.60
2018-02-16T14:48:58.459Z,39.70
2018-02-16T14:51:25.095Z,40.30
2018-02-16T14:53:51.749Z,40.80
2018-02-16T14:56:18.366Z,40.20
2018-02-16T14:58:45.133Z,40.90
2018-02-16T15:01:11.864Z,41.10
2018-02-16T15:03:38.538Z,41.80
2018-02-16T15:06:05.210Z,40.90
2018-02-16T15:08:31.846Z,41.80
2018-02-16T15:10:59.207Z,41.60
2018-02-16T15:13:25.858Z,41.50
2018-02-16T15:15:52.530Z,39.60
2018-02-16T15:18:19.179Z,40.20
2018-02-16T15:20:45.821Z,40.00
2018-02-16T15:23:13.230Z,42.00
2018-02-16T15:25:39.864Z,41.50
2018-02-16T15:28:06.572Z,42.10
2018-02-16T15:30:34.135Z,43.20
2018-02-16T15:33:00.772Z,43.20
2018-02-16T15:35:28.208Z,45.00
2018-02-16T15:37:54.858Z,44.90
2018-02-16T15:40:22.224Z,46.40
2018-02-16T15:42:48.810Z,46.30
2018-02-16T15:45:15.458Z,46.70
2018-02-16T15:47:42.091Z,47.60
2018-02-16T15:50:08.750Z,47.00
2018-02-16T15:52:36.131Z,48.20
2018-02-16T15:55:03.523Z,48.70
2018-02-16T15:57:30.119Z,48.70
2018-02-16T15:59:57.903Z,49.00
2018-02-16T16:02:24.527Z,49.00
2018-02-16T16:04:51.162Z,49.10
2018-02-16T16:07:17.747Z,49.70
2018-02-16T16:09:44.359Z,50.00
2018-02-16T16:12:11.002Z,49.10
2018-02-16T16:14:37.602Z,49.10
2018-02-16T16:17:04.950Z,49.50
2018-02-16T16:19:31.542Z,49.50
2018-02-16T16:21:58.180Z,49.40
2018-02-16T16:24:24.790Z,48.40
2018-02-16T16:26:51.447Z,46.90
2018-02-16T16:29:18.027Z,47.30
2018-02-16T16:31:45.389Z,48.70
2018-02-16T16:34:12.032Z,48.70
2018-02-16T16:36:39.428Z,48.80
2018-02-16T16:39:06.080Z,48.80
2018-02-16T16:41:32.713Z,49.50
2018-02-16T16:43:59.399Z,50.60
2018-02-16T16:46:26.055Z,51.30
2018-02-16T16:48:52.689Z,51.70
2018-02-16T16:51:19.326Z,53.50
2018-02-16T16:53:45.971Z,53.40
2018-02-16T16:56:12.593Z,53.30
2018-02-16T16:58:40.006Z,54.40
2018-02-16T17:01:06.649Z,54.40
2018-02-16T17:03:33.270Z,54.30
2018-02-16T17:05:59.866Z,54.90
2018-02-16T17:08:27.296Z,56.60
2018-02-16T17:10:54.145Z,56.50
2018-02-16T17:13:20.770Z,57.00
2018-02-16T17:15:48.177Z,56.80
2018-02-16T17:18:14.842Z,56.70
2018-02-16T17:20:41.466Z,56.80
2018-02-16T17:23:08.075Z,56.80
2018-02-16T17:25:34.760Z,56.70
2018-02-16T17:28:01.477Z,56.70
2018-02-16T17:30:28.082Z,56.40
2018-02-16T17:32:54.746Z,56.00
2018-02-16T17:35:21.387Z,54.80
2018-02-16T17:37:48.003Z,54.80
2018-02-16T17:40:14.599Z,55.00
2018-02-16T17:42:41.242Z,56.10
2018-02-16T17:45:07.922Z,56.50
2018-02-16T17:47:34.548Z,56.30
2018-02-16T17:50:01.159Z,56.60
2018-02-16T17:52:28.558Z,56.30
2018-02-16T17:54:55.207Z,56.30
2018-02-16T17:57:21.883Z,56.30
2018-02-16T17:59:48.551Z,56.20
2018-02-16T18:02:15.256Z,56.00
2018-02-16T18:04:41.917Z,56.10
2018-02-16T18:07:09.292Z,56.10
2018-02-16T18:09:36.008Z,56.10
2018-02-16T18:12:02.695Z,56.40
2018-02-16T18:14:29.467Z,56.50
2018-02-16T18:16:56.178Z,56.40
2018-02-16T18:19:23.546Z,56.70
2018-02-16T18:21:50.179Z,56.70
2018-02-16T18:24:16.849Z,56.60
2018-02-16T18:26:44.214Z,57.40
2018-02-16T18:29:10.998Z,57.40
2018-02-16T18:31:38.338Z,56.50
2018-02-16T18:34:05.098Z,56.40
2018-02-16T18:36:31.797Z,55.80
2018-02-16T18:38:58.466Z,55.80
2018-02-16T18:41:25.199Z,55.50
2018-02-16T18:43:51.864Z,55.70
2018-02-16T18:46:18.556Z,56.10
2018-02-16T18:48:45.239Z,56.20
2018-02-16T18:51:11.925Z,56.30
2018-02-16T18:53:38.549Z,57.10
2018-02-16T18:56:05.350Z,57.60
2018-02-16T18:58:31.987Z,57.80
2018-02-16T19:00:58.629Z,57.50
2018-02-16T19:03:25.264Z,57.30
2018-02-16T19:05:51.864Z,57.30
2018-02-16T19:08:18.516Z,58.30
2018-02-16T19:10:45.174Z,59.80
2018-02-16T19:13:11.811Z,59.70
2018-02-16T19:15:38.464Z,59.10
2018-02-16T19:18:05.202Z,57.70
2018-02-16T19:20:31.931Z,56.70
2018-02-16T19:22:58.585Z,57.30
2018-02-16T19:25:25.263Z,57.90
2018-02-16T19:27:52.593Z,56.40
2018-02-16T19:30:19.277Z,56.40
2018-02-16T19:32:45.873Z,55.60
2018-02-16T19:35:13.344Z,56.80
2018-02-16T19:37:40.808Z,57.50
2018-02-16T19:40:08.219Z,58.30
2018-02-16T19:42:34.870Z,58.30
2018-02-16T19:45:01.524Z,58.80
2018-02-16T19:47:28.193Z,58.50
2018-02-16T19:49:54.814Z,58.50
2018-02-16T19:52:21.464Z,58.90
2018-02-16T19:54:48.052Z,59.30
2018-02-16T19:57:14.686Z,59.00
2018-02-16T19:59:41.295Z,58.30
2018-02-16T20:02:07.978Z,58.60
2018-02-16T20:04:34.705Z,58.30
2018-02-16T20:07:01.397Z,57.20
2018-02-16T20:09:28.065Z,56.00
2018-02-16T20:11:54.715Z,55.90
2018-02-16T20:14:21.379Z,56.20
2018-02-16T20:16:48.063Z,57.10
2018-02-16T20:19:15.545Z,58.80
2018-02-16T20:21:42.304Z,59.30
2018-02-16T20:24:09.696Z,59.20
2018-02-16T20:26:36.350Z,59.20
2018-02-16T20:29:03.007Z,59.20
2018-02-16T20:31:29.701Z,59.20
2018-02-16T20:33:56.415Z,58.20
2018-02-16T20:36:23.065Z,58.50
2018-02-16T20:38:49.716Z,59.10
2018-02-16T20:41:16.352Z,58.30
2018-02-16T20:43:42.967Z,58.30
2018-02-16T20:46:09.679Z,59.10
2018-02-16T20:48:36.428Z,59.00
2018-02-16T20:51:03.087Z,59.30
2018-02-16T20:53:29.784Z,59.30
2018-02-16T20:55:56.414Z,58.50
2018-02-16T20:58:23.051Z,58.40
2018-02-16T21:00:49.762Z,58.40
2018-02-16T21:03:16.399Z,59.30
2018-02-16T21:05:43.801Z,60.00
2018-02-16T21:08:10.460Z,59.90
2018-02-16T21:10:37.067Z,60.90
2018-02-16T21:13:03.779Z,61.70
2018-02-16T21:15:30.411Z,60.60
2018-02-16T21:17:57.176Z,60.40
2018-02-16T21:20:23.878Z,60.70
2018-02-16T21:22:50.615Z,61.50
2018-02-16T21:25:18.018Z,61.70
2018-02-16T21:27:44.658Z,61.70
2018-02-16T21:30:11.292Z,61.50
2018-02-16T21:32:37.892Z,61.70
2018-02-16T21:35:05.303Z,61.70
2018-02-16T21:37:32.732Z,60.70
2018-02-16T21:39:59.371Z,60.60
2018-02-16T21:42:26.058Z,59.60
2018-02-16T21:44:52.667Z,59.30
2018-02-16T21:47:20.049Z,59.80
2018-02-16T21:49:46.670Z,59.80
2018-02-16T21:52:13.293Z,59.80
2018-02-16T21:54:39.898Z,59.30
2018-02-16T21:57:06.502Z,59.60
2018-02-16T21:59:33.166Z,59.30
2018-02-16T22:02:00.071Z,59.30
2018-02-16T22:04:26.679Z,59.30
2018-02-16T22:06:53.330Z,59.30
2018-02-16T22:09:19.959Z,60.20
2018-02-16T22:11:47.301Z,60.70
2018-02-16T22:14:14.104Z,61.10
2018-02-16T22:16:40.694Z,61.00
2018-02-16T22:19:07.364Z,61.30
2018-02-16T22:21:34.007Z,60.90
2018-02-16T22:24:01.398Z,60.90
2018-02-16T22:26:28.111Z,60.90
2018-02-16T22:28:56.366Z,59.40
2018-02-16T22:31:22.998Z,59.30
2018-02-16T22:33:49.650Z,58.60
2018-02-16T22:36:16.278Z,59.30
2018-02-16T22:38:42.911Z,59.70
2018-02-16T22:41:09.586Z,60.50
2018-02-16T22:43:36.954Z,59.30
2018-02-16T22:46:03.569Z,59.30
2018-02-16T22:48:30.930Z,58.50
2018-02-16T22:50:58.323Z,58.50
2018-02-16T22:53:25.403Z,58.40
2018-02-16T22:55:52.055Z,58.50
2018-02-16T22:58:19.415Z,57.70
2018-02-16T23:00:46.778Z,58.30
2018-02-16T23:03:13.398Z,58.20
2018-02-16T23:05:40.774Z,58.70
2018-02-16T23:08:07.384Z,58.70
2018-02-16T23:10:34.026Z,59.10
2018-02-16T23:13:01.394Z,59.10
2018-02-16T23:15:28.763Z,57.70
2018-02-16T23:17:55.380Z,57.80
2018-02-16T23:20:22.022Z,57.40
2018-02-16T23:22:49.370Z,57.50
2018-02-16T23:25:15.986Z,57.40
2018-02-16T23:27:42.620Z,57.30
2018-02-16T23:30:10.026Z,57.80
2018-02-16T23:32:36.685Z,57.70
2018-02-16T23:35:03.287Z,58.20
2018-02-16T23:37:30.645Z,57.80
2018-02-16T23:39:58.052Z,59.60
2018-02-16T23:42:24.611Z,58.90
2018-02-16T23:44:51.321Z,58.80
2018-02-16T23:47:17.946Z,58.90
2018-02-16T23:49:45.274Z,59.40
2018-02-16T23:52:11.901Z,59.30
2018-02-16T23:54:38.655Z,58.80
2018-02-16T23:57:05.326Z,58.80
2018-02-16T23:59:32.741Z,58.80
